Time;durP1;ratioP1;P1;durP2;ratioP2;P2;SDS_P1;SDS_P2;PMS_P1;PMS_P2;Temp;Humidity;BMP_temperature;BMP_pressure;BME280_temperature;BME280_humidity;BME280_pressure;Samples;Min_cycle;Max_cycle;Signal;HPM_P1;HPM_P2
2022/08/15 00:00:16;;;;;;;1999.90;999.90;;;22.80;22.30;;;;;;5034646;28;20253;-61
2022/08/15 00:02:44;;;;;;;1999.90;999.90;;;22.60;1.00;;;;;;5034574;28;20192;-60
2022/08/15 00:05:12;;;;;;;1999.90;999.90;;;22.50;99.90;;;;;;5034281;28;20196;-61
2022/08/15 00:07:41;;;;;;;1999.90;999.90;;;22.70;1.00;;;;;;5034281;28;20211;-61
2022/08/15 00:10:09;;;;;;;1999.90;999.90;;;22.90;1.00;;;;;;5034619;28;20208;-62
2022/08/15 00:12:38;;;;;;;1999.90;999.90;;;23.00;1.00;;;;;;5034134;28;20677;-62
2022/08/15 00:15:09;;;;;;;1999.90;999.90;;;23.00;99.90;;;;;;5034469;28;20266;-62
2022/08/15 00:17:37;;;;;;;1999.90;999.90;;;23.10;1.00;;;;;;5034390;28;20184;-62
2022/08/15 00:20:06;;;;;;;1999.90;999.90;;;23.20;1.00;;;;;;5034448;28;20200;-62
2022/08/15 00:22:34;;;;;;;1999.90;999.90;;;23.20;1.00;;;;;;5033978;28;20208;-62
2022/08/15 00:25:03;;;;;;;1999.90;999.90;;;23.20;99.90;;;;;;5034073;28;20218;-62
2022/08/15 00:27:31;;;;;;;1999.90;999.90;;;23.20;99.90;;;;;;5033929;28;20575;-62
2022/08/15 00:30:02;;;;;;;1999.90;999.90;;;23.20;99.90;;;;;;5033754;28;20200;-62
2022/08/15 00:32:29;;;;;;;1999.90;999.90;;;23.30;31.80;;;;;;5033497;28;20744;-62
2022/08/15 00:34:56;;;;;;;1999.90;999.90;;;23.30;39.40;;;;;;5033859;28;20696;-62
2022/08/15 00:37:23;;;;;;;1999.90;999.90;;;23.30;1.00;;;;;;5033729;28;20669;-62
2022/08/15 00:39:50;;;;;;;1999.90;999.90;;;23.30;1.00;;;;;;5033717;28;20203;-62
2022/08/15 00:42:23;;;;;;;1999.90;999.90;;;23.30;1.00;;;;;;5033724;28;20545;-62
2022/08/15 00:44:54;;;;;;;1999.90;999.90;;;23.30;1.00;;;;;;5033693;28;20179;-62
2022/08/15 00:47:23;;;;;;;1999.90;999.90;;;23.20;1.00;;;;;;5033648;28;20188;-62
2022/08/15 00:49:50;;;;;;;1999.90;999.90;;;23.20;1.00;;;;;;5033887;28;20207;-62
2022/08/15 00:52:22;;;;;;;1999.90;999.90;;;23.30;1.00;;;;;;5033352;28;20588;-62
2022/08/15 00:54:55;;;;;;;1999.90;999.90;;;23.40;1.00;;;;;;5033497;28;20189;-62
2022/08/15 00:57:29;;;;;;;1999.90;999.90;;;23.40;1.00;;;;;;5033452;28;20187;-62
2022/08/15 01:00:00;;;;;;;1999.90;999.90;;;23.30;1.00;;;;;;5033291;28;20191;-62
2022/08/15 01:02:30;;;;;;;1999.90;999.90;;;23.30;1.00;;;;;;5033216;28;20180;-62
2022/08/15 01:04:58;;;;;;;1999.90;999.90;;;23.30;1.00;;;;;;5033622;28;20188;-61
2022/08/15 01:07:26;;;;;;;1999.90;999.90;;;23.20;1.00;;;;;;5033474;28;20196;-62
2022/08/15 01:09:53;;;;;;;1999.90;999.90;;;23.30;1.00;;;;;;5033479;28;20204;-62
2022/08/15 01:12:25;;;;;;;1999.90;999.90;;;23.30;1.00;;;;;;5033401;28;20220;-62
2022/08/15 01:14:56;;;;;;;1999.90;999.90;;;23.20;1.00;;;;;;5033471;28;20195;-62
2022/08/15 01:17:25;;;;;;;1999.90;999.90;;;23.20;1.00;;;;;;5033275;28;20189;-62
2022/08/15 01:19:55;;;;;;;1999.90;999.90;;;23.10;1.00;;;;;;5033038;28;20219;-62
2022/08/15 01:22:36;;;;;;;1999.90;999.90;;;23.10;1.00;;;;;;5033281;28;20183;-62
2022/08/15 01:25:09;;;;;;;1999.90;999.90;;;23.10;1.00;;;;;;5033164;28;20233;-62
2022/08/15 01:27:42;;;;;;;1999.90;999.90;;;23.00;1.00;;;;;;5033206;28;20181;-62
2022/08/15 01:30:15;;;;;;;1999.90;999.90;;;23.00;1.00;;;;;;5032638;28;20722;-62
2022/08/15 01:32:43;;;;;;;1999.90;999.90;;;23.00;1.00;;;;;;5032675;28;20224;-61
2022/08/15 01:35:11;;;;;;;1999.90;999.90;;;23.10;1.00;;;;;;5032717;28;20669;-62
2022/08/15 01:37:40;;;;;;;1999.90;999.90;;;23.00;1.00;;;;;;5032965;28;20192;-62
2022/08/15 01:40:18;;;;;;;1999.90;999.90;;;23.10;1.00;;;;;;5032594;28;20684;-62
2022/08/15 01:42:49;;;;;;;1999.90;999.90;;;23.00;16.70;;;;;;5032882;28;20183;-62
2022/08/15 01:45:21;;;;;;;1999.90;999.90;;;23.00;35.80;;;;;;5033168;28;20196;-62
2022/08/15 01:47:55;;;;;;;1999.90;999.90;;;23.00;94.50;;;;;;5032857;28;20195;-62
2022/08/15 01:50:27;;;;;;;1999.90;999.90;;;23.00;99.90;;;;;;5032561;28;20184;-62
2022/08/15 01:53:02;;;;;;;1999.90;999.90;;;23.00;99.90;;;;;;5031884;28;20223;-62
2022/08/15 01:55:37;;;;;;;1999.90;999.90;;;22.90;99.90;;;;;;5032507;28;20661;-62
2022/08/15 01:58:07;;;;;;;1999.90;999.90;;;22.90;99.90;;;;;;5032474;28;20188;-62
2022/08/15 02:00:35;;;;;;;1999.90;999.90;;;22.90;99.90;;;;;;5032239;28;20185;-62
2022/08/15 02:03:02;;;;;;;1999.90;999.90;;;22.80;99.90;;;;;;5032267;28;20196;-61
2022/08/15 02:05:30;;;;;;;1999.90;999.90;;;22.80;99.90;;;;;;5032621;28;20218;-61
2022/08/15 02:07:57;;;;;;;1999.90;999.90;;;22.80;99.90;;;;;;5032622;28;20196;-62
2022/08/15 02:10:24;;;;;;;1999.90;999.90;;;22.80;99.90;;;;;;5032246;28;20203;-62
2022/08/15 02:12:52;;;;;;;1999.90;999.90;;;22.80;99.90;;;;;;5032151;28;20624;-62
2022/08/15 02:15:21;;;;;;;1999.90;999.90;;;22.80;99.90;;;;;;5032562;28;20591;-62
2022/08/15 02:17:49;;;;;;;1999.90;999.90;;;22.80;99.90;;;;;;5032455;28;20200;-62
2022/08/15 02:20:18;;;;;;;1999.90;999.90;;;22.70;99.90;;;;;;5032441;28;20200;-62
2022/08/15 02:22:46;;;;;;;1999.90;999.90;;;22.70;1.00;;;;;;5032365;28;20204;-62
2022/08/15 02:25:13;;;;;;;1999.90;999.90;;;22.70;1.00;;;;;;5031983;28;20202;-62
2022/08/15 02:27:40;;;;;;;1999.90;999.90;;;22.70;1.00;;;;;;5032415;28;20208;-61
2022/08/15 02:30:14;;;;;;;1999.90;999.90;;;22.70;1.00;;;;;;5031911;28;20200;-62
2022/08/15 02:32:43;;;;;;;1999.90;999.90;;;22.70;1.00;;;;;;5031821;28;20589;-61
2022/08/15 02:35:12;;;;;;;1999.90;999.90;;;22.70;1.00;;;;;;5032308;28;20211;-61
2022/08/15 02:37:40;;;;;;;1999.90;999.90;;;22.60;1.00;;;;;;5032002;28;20204;-62
2022/08/15 02:40:09;;;;;;;1999.90;999.90;;;22.50;99.90;;;;;;5032255;28;20196;-62
2022/08/15 02:42:38;;;;;;;1999.90;999.90;;;22.50;99.90;;;;;;5031929;28;20198;-62
2022/08/15 02:45:10;;;;;;;1999.90;999.90;;;22.40;99.90;;;;;;5031934;28;20200;-62
2022/08/15 02:47:43;;;;;;;1999.90;999.90;;;22.40;1.00;;;;;;5032251;28;20185;-62
2022/08/15 02:50:11;;;;;;;1999.90;999.90;;;22.40;1.00;;;;;;5031968;28;20184;-62
2022/08/15 02:52:40;;;;;;;1999.90;999.90;;;22.50;99.90;;;;;;5031751;28;20685;-62
2022/08/15 02:55:09;;;;;;;1999.90;999.90;;;22.40;99.90;;;;;;5031835;28;20750;-62
2022/08/15 02:57:36;;;;;;;1999.90;999.90;;;22.50;99.90;;;;;;5032096;28;20206;-62
2022/08/15 03:00:06;;;;;;;1999.90;999.90;;;22.50;99.90;;;;;;5031977;28;20200;-61
2022/08/15 03:02:53;;;;;;;1999.90;999.90;;;22.50;99.90;;;;;;5032022;28;20196;-61
2022/08/15 03:05:23;;;;;;;1999.90;999.90;;;22.60;99.90;;;;;;5035241;28;20191;-61
2022/08/15 03:07:51;;;;;;;1999.90;999.90;;;22.60;99.90;;;;;;5035475;28;20611;-61
2022/08/15 03:10:18;;;;;;;1999.90;999.90;;;22.50;99.90;;;;;;5035433;28;20560;-61
2022/08/15 03:12:54;;;;;;;1999.90;999.90;;;22.50;99.90;;;;;;5035550;28;20212;-62
2022/08/15 03:15:22;;;;;;;1999.90;999.90;;;22.40;99.90;;;;;;5035689;28;20183;-62
2022/08/15 03:17:51;;;;;;;1999.90;999.90;;;22.40;99.90;;;;;;5035562;28;20200;-62
2022/08/15 03:20:19;;;;;;;1999.90;999.90;;;22.30;1.00;;;;;;5035542;28;20196;-62
2022/08/15 03:22:49;;;;;;;1999.90;999.90;;;22.30;1.00;;;;;;5035447;28;20199;-61
2022/08/15 03:25:20;;;;;;;1999.90;999.90;;;22.20;1.00;;;;;;5035471;28;20200;-62
2022/08/15 03:27:47;;;;;;;1999.90;999.90;;;22.10;1.00;;;;;;5035729;28;20183;-62
2022/08/15 03:30:16;;;;;;;1999.90;999.90;;;21.90;99.90;;;;;;5035193;28;20196;-62
2022/08/15 03:32:45;;;;;;;1999.90;999.90;;;21.80;1.00;;;;;;5034697;28;20236;-62
2022/08/15 03:35:15;;;;;;;1999.90;999.90;;;21.80;1.00;;;;;;5035026;28;20204;-62
2022/08/15 03:37:42;;;;;;;1999.90;999.90;;;21.90;1.00;;;;;;5034876;28;20204;-62
2022/08/15 03:40:10;;;;;;;1999.90;999.90;;;21.90;1.00;;;;;;5034872;28;20201;-62
2022/08/15 03:42:38;;;;;;;1999.90;999.90;;;22.00;1.00;;;;;;5034820;28;20200;-62
2022/08/15 03:45:11;;;;;;;1999.90;999.90;;;22.00;99.90;;;;;;5035080;28;20200;-62
2022/08/15 03:47:38;;;;;;;1999.90;999.90;;;22.20;97.00;;;;;;5035048;28;20243;-62
2022/08/15 03:50:06;;;;;;;1999.90;999.90;;;22.20;42.30;;;;;;5034992;28;20202;-62
2022/08/15 03:52:47;;;;;;;1999.90;999.90;;;22.10;99.90;;;;;;5034876;28;20196;-62
2022/08/15 03:55:14;;;;;;;1999.90;999.90;;;22.10;99.90;;;;;;5034656;28;20659;-63
2022/08/15 03:57:41;;;;;;;1999.90;999.90;;;22.10;99.90;;;;;;5034544;28;20546;-62
2022/08/15 04:00:10;;;;;;;1999.90;999.90;;;22.10;1.00;;;;;;5034345;28;20192;-62
2022/08/15 04:02:39;;;;;;;1999.90;999.90;;;22.10;1.00;;;;;;5034498;28;20180;-62
2022/08/15 04:05:07;;;;;;;1999.90;999.90;;;22.10;1.00;;;;;;5034432;28;20692;-62
2022/08/15 04:07:36;;;;;;;1999.90;999.90;;;22.10;1.00;;;;;;5034668;28;20204;-62
2022/08/15 04:10:04;;;;;;;1999.90;999.90;;;22.10;1.00;;;;;;5034624;28;20196;-62
2022/08/15 04:12:34;;;;;;;1999.90;999.90;;;22.10;1.00;;;;;;5034275;28;20544;-62
2022/08/15 04:15:02;;;;;;;1999.90;999.90;;;22.00;1.00;;;;;;5033698;28;20223;-62
2022/08/15 04:17:29;;;;;;;1999.90;999.90;;;22.10;1.00;;;;;;5034083;28;20527;-62
2022/08/15 04:19:56;;;;;;;1999.90;999.90;;;22.10;1.00;;;;;;5034163;28;20697;-62
2022/08/15 04:22:29;;;;;;;1999.90;999.90;;;22.00;1.00;;;;;;5034334;28;20200;-62
2022/08/15 04:25:01;;;;;;;1999.90;999.90;;;22.00;1.00;;;;;;5034412;28;20189;-62
2022/08/15 04:27:28;;;;;;;1999.90;999.90;;;22.00;99.90;;;;;;5034327;28;20176;-62
2022/08/15 04:29:55;;;;;;;1999.90;999.90;;;22.00;99.90;;;;;;5034066;28;20200;-62
2022/08/15 04:32:27;;;;;;;1999.90;999.90;;;22.10;1.00;;;;;;5033788;28;20236;-61
2022/08/15 04:34:54;;;;;;;1999.90;999.90;;;22.00;1.00;;;;;;5034143;28;20210;-62
2022/08/15 04:37:22;;;;;;;1999.90;999.90;;;22.10;1.00;;;;;;5034141;28;20204;-62
2022/08/15 04:39:50;;;;;;;1999.90;999.90;;;22.10;1.00;;;;;;5034072;28;20204;-62
2022/08/15 04:42:20;;;;;;;1999.90;999.90;;;22.10;1.00;;;;;;5033966;28;20215;-63
2022/08/15 04:44:47;;;;;;;1999.90;999.90;;;22.20;1.00;;;;;;5033634;28;20189;-62
2022/08/15 04:47:15;;;;;;;1999.90;999.90;;;22.10;1.00;;;;;;5033634;28;20673;-62
2022/08/15 04:49:42;;;;;;;1999.90;999.90;;;22.20;1.00;;;;;;5033566;28;20293;-62
2022/08/15 04:52:11;;;;;;;1999.90;999.90;;;22.20;1.00;;;;;;5033463;28;20196;-62
2022/08/15 04:54:39;;;;;;;1999.90;999.90;;;22.20;1.00;;;;;;5033724;28;20223;-64
2022/08/15 04:57:06;;;;;;;1999.90;999.90;;;22.20;1.00;;;;;;5033749;28;20206;-66
2022/08/15 04:59:36;;;;;;;1999.90;999.90;;;22.20;99.90;;;;;;5033293;28;20200;-61
2022/08/15 05:02:05;;;;;;;1999.90;999.90;;;22.20;99.90;;;;;;5033518;28;20196;-61
2022/08/15 05:04:33;;;;;;;1999.90;999.90;;;22.10;1.00;;;;;;5033283;28;20215;-61
2022/08/15 05:07:00;;;;;;;1999.90;999.90;;;22.20;1.00;;;;;;5033599;28;20200;-61
2022/08/15 05:09:27;;;;;;;1999.90;999.90;;;22.10;1.00;;;;;;5033182;28;20215;-62
2022/08/15 05:11:54;;;;;;;1999.90;999.90;;;22.20;1.00;;;;;;5033507;28;20196;-61
2022/08/15 05:14:21;;;;;;;1999.90;999.90;;;22.20;1.00;;;;;;5033062;28;20776;-62
2022/08/15 05:16:50;;;;;;;1999.90;999.90;;;22.20;99.90;;;;;;5033049;28;20200;-62
2022/08/15 05:19:17;;;;;;;1999.90;999.90;;;22.20;99.90;;;;;;5033023;28;20204;-61
2022/08/15 05:21:44;;;;;;;1999.90;999.90;;;22.20;99.90;;;;;;5033293;28;20192;-62
2022/08/15 05:24:11;;;;;;;1999.90;999.90;;;22.20;1.00;;;;;;5033251;28;20254;-62
2022/08/15 05:26:38;;;;;;;1999.90;999.90;;;22.30;1.00;;;;;;5032734;28;20200;-62
2022/08/15 05:29:07;;;;;;;1999.90;999.90;;;22.30;1.00;;;;;;5032875;28;20196;-62
2022/08/15 05:31:35;;;;;;;1999.90;999.90;;;22.30;1.00;;;;;;5032713;28;20687;-62
2022/08/15 05:34:03;;;;;;;1999.90;999.90;;;22.30;1.00;;;;;;5032594;28;20232;-62
2022/08/15 05:36:33;;;;;;;1999.90;999.90;;;22.40;59.30;;;;;;5033043;28;20200;-62
2022/08/15 05:39:04;;;;;;;1999.90;999.90;;;22.30;99.90;;;;;;5032775;28;20246;-62
2022/08/15 05:41:39;;;;;;;1999.90;999.90;;;22.20;99.90;;;;;;5032958;28;20187;-62
2022/08/15 05:44:16;;;;;;;1999.90;999.90;;;22.20;1.00;;;;;;5032970;28;20186;-62
2022/08/15 05:46:46;;;;;;;1999.90;999.90;;;22.20;99.90;;;;;;5032648;28;20180;-62
2022/08/15 05:49:26;;;;;;;1999.90;999.90;;;22.20;99.90;;;;;;5032922;28;20206;-62
2022/08/15 05:52:09;;;;;;;1999.90;999.90;;;22.20;82.60;;;;;;5032586;28;20176;-62
2022/08/15 05:54:59;;;;;;;1999.90;999.90;;;22.20;1.00;;;;;;5032770;28;20204;-62
2022/08/15 05:57:30;;;;;;;1999.90;999.90;;;22.30;1.00;;;;;;5032788;28;20180;-62
2022/08/15 06:00:02;;;;;;;1999.90;999.90;;;22.30;1.00;;;;;;5032622;28;20250;-61
2022/08/15 06:02:34;;;;;;;1999.90;999.90;;;22.20;1.00;;;;;;5032719;28;20187;-61
2022/08/15 06:05:08;;;;;;;1999.90;999.90;;;22.20;99.90;;;;;;5032641;28;20184;-61
2022/08/15 06:07:35;;;;;;;1999.90;999.90;;;22.20;99.90;;;;;;5032632;28;20172;-62
2022/08/15 06:10:07;;;;;;;1999.90;999.90;;;22.20;1.00;;;;;;5032547;28;20206;-62
2022/08/15 06:12:37;;;;;;;1999.90;999.90;;;22.30;1.00;;;;;;5032167;28;20253;-62
2022/08/15 06:15:12;;;;;;;1999.90;999.90;;;22.30;1.00;;;;;;5032439;28;20215;-62
2022/08/15 06:17:42;;;;;;;1999.90;999.90;;;22.30;99.90;;;;;;5032012;28;20544;-62
2022/08/15 06:20:14;;;;;;;1999.90;999.90;;;22.40;99.90;;;;;;5020852;28;20526;-62
2022/08/15 06:22:57;;;;;;;1999.90;999.90;;;22.40;1.00;;;;;;5028752;28;20180;-63
2022/08/15 06:25:33;;;;;;;1999.90;999.90;;;22.40;99.90;;;;;;5029867;28;20184;-63
2022/08/15 06:28:15;;;;;;;1999.90;999.90;;;22.40;1.00;;;;;;5021903;28;20198;-63
2022/08/15 06:30:48;;;;;;;1999.90;999.90;;;22.50;99.90;;;;;;5030458;28;20682;-62
2022/08/15 06:33:30;;;;;;;1999.90;999.90;;;22.60;99.90;;;;;;5029016;28;20224;-61
2022/08/15 06:36:06;;;;;;;1999.90;999.90;;;22.60;1.00;;;;;;5029690;28;20226;-62
2022/08/15 06:38:42;;;;;;;1999.90;999.90;;;22.80;1.00;;;;;;5030758;28;20187;-62
2022/08/15 06:41:19;;;;;;;1999.90;999.90;;;22.80;24.90;;;;;;5035450;28;20188;-63
2022/08/15 06:43:48;;;;;;;1999.90;999.90;;;22.90;99.90;;;;;;5033618;28;20181;-62
2022/08/15 06:46:16;;;;;;;1999.90;999.90;;;23.00;99.90;;;;;;5036167;28;20200;-62
2022/08/15 06:48:44;;;;;;;1999.90;999.90;;;23.10;1.00;;;;;;5035859;28;20218;-62
2022/08/15 06:51:13;;;;;;;1999.90;999.90;;;23.10;1.00;;;;;;5036203;28;20548;-63
2022/08/15 06:53:45;;;;;;;1999.90;999.90;;;23.10;1.00;;;;;;5035961;28;20207;-62
2022/08/15 06:56:19;;;;;;;1999.90;999.90;;;23.20;99.90;;;;;;5036114;28;20187;-62
2022/08/15 06:58:51;;;;;;;1999.90;999.90;;;23.30;1.00;;;;;;5035993;28;20191;-61
2022/08/15 07:01:29;;;;;;;1999.90;999.90;;;23.20;1.00;;;;;;5035428;28;20189;-61
2022/08/15 07:04:04;;;;;;;1999.90;999.90;;;23.30;55.40;;;;;;5035861;28;20193;-61
2022/08/15 07:06:40;;;;;;;1999.90;999.90;;;23.80;1.00;;;;;;5035827;28;20180;-63
2022/08/15 07:09:26;;;;;;;1999.90;999.90;;;24.00;99.90;;;;;;5035032;28;20257;-63
2022/08/15 07:12:07;;;;;;;1999.90;999.90;;;24.10;1.00;;;;;;5035792;28;20181;-63
2022/08/15 07:14:44;;;;;;;1999.90;999.90;;;24.20;99.90;;;;;;5035336;28;20205;-63
2022/08/15 07:17:15;;;;;;;1999.90;999.90;;;24.10;87.70;;;;;;5035613;28;20180;-63
2022/08/15 07:19:43;;;;;;;1999.90;999.90;;;24.00;1.00;;;;;;5035573;28;20185;-62
2022/08/15 07:22:11;;;;;;;1999.90;999.90;;;23.70;1.00;;;;;;5035161;28;20196;-62
2022/08/15 07:24:47;;;;;;;1999.90;999.90;;;23.60;1.00;;;;;;5035391;28;20204;-62
2022/08/15 07:27:17;;;;;;;1999.90;999.90;;;23.50;99.90;;;;;;5035408;28;20185;-63
2022/08/15 07:29:46;;;;;;;1999.90;999.90;;;23.40;99.90;;;;;;5035194;28;20207;-62
2022/08/15 07:32:16;;;;;;;1999.90;999.90;;;23.40;99.90;;;;;;5034768;28;20232;-62
2022/08/15 07:34:59;;;;;;;1999.90;999.90;;;23.30;99.90;;;;;;5034982;28;20216;-62
2022/08/15 07:37:33;;;;;;;1999.90;999.90;;;23.10;99.90;;;;;;5035019;28;20185;-64
2022/08/15 07:40:06;;;;;;;1999.90;999.90;;;23.00;1.00;;;;;;5034973;28;20642;-62
2022/08/15 07:42:40;;;;;;;1999.90;999.90;;;23.00;1.00;;;;;;5034855;28;20552;-63
2022/08/15 07:45:15;;;;;;;1999.90;999.90;;;22.80;99.90;;;;;;5034974;28;20541;-63
2022/08/15 07:47:55;;;;;;;1999.90;999.90;;;22.80;99.90;;;;;;5035146;28;20188;-63
2022/08/15 07:50:33;;;;;;;1999.90;999.90;;;22.70;1.00;;;;;;5033769;28;20214;-62
2022/08/15 07:53:11;;;;;;;1999.90;999.90;;;22.70;1.00;;;;;;5034604;28;20188;-64
2022/08/15 07:55:39;;;;;;;1999.90;999.90;;;22.80;20.80;;;;;;5034587;28;20205;-65
2022/08/15 07:58:15;;;;;;;1999.90;999.90;;;22.70;1.00;;;;;;5034725;28;20192;-64
2022/08/15 08:00:42;;;;;;;1999.90;999.90;;;22.70;99.90;;;;;;5034619;28;20185;-62
2022/08/15 08:03:15;;;;;;;1999.90;999.90;;;22.70;1.00;;;;;;5034328;28;20211;-61
2022/08/15 08:05:57;;;;;;;1999.90;999.90;;;22.50;1.00;;;;;;5034341;28;20172;-61
2022/08/15 08:08:36;;;;;;;1999.90;999.90;;;22.30;99.90;;;;;;5034587;28;20203;-62
2022/08/15 08:11:11;;;;;;;1999.90;999.90;;;22.40;99.90;;;;;;5034538;28;20180;-61
2022/08/15 08:13:45;;;;;;;1999.90;999.90;;;22.40;99.90;;;;;;5034244;28;20184;-62
2022/08/15 08:16:21;;;;;;;1999.90;999.90;;;22.40;99.90;;;;;;5034429;28;20200;-63
2022/08/15 08:18:53;;;;;;;1999.90;999.90;;;22.40;99.90;;;;;;5034155;28;20194;-63
2022/08/15 08:21:26;;;;;;;1999.90;999.90;;;22.60;99.90;;;;;;5034167;28;20533;-62
2022/08/15 08:24:00;;;;;;;1999.90;999.90;;;22.50;99.90;;;;;;5034060;28;20189;-62
2022/08/15 08:26:33;;;;;;;1999.90;999.90;;;22.50;99.90;;;;;;5034240;28;20177;-62
2022/08/15 08:29:06;;;;;;;1999.90;999.90;;;22.60;99.90;;;;;;5033852;28;20188;-62
2022/08/15 08:31:43;;;;;;;1999.90;999.90;;;22.60;99.90;;;;;;5034150;28;20176;-62
2022/08/15 08:34:19;;;;;;;1999.90;999.90;;;22.60;99.90;;;;;;5033653;28;20231;-62
2022/08/15 08:36:55;;;;;;;1999.90;999.90;;;22.70;99.90;;;;;;5034128;28;20173;-63
2022/08/15 08:39:37;;;;;;;1999.90;999.90;;;22.80;99.90;;;;;;5033774;28;20190;-62
2022/08/15 08:42:20;;;;;;;1999.90;999.90;;;22.90;99.70;;;;;;5034017;28;20181;-64
2022/08/15 08:44:58;;;;;;;1999.90;999.90;;;23.10;1.00;;;;;;5033640;28;20641;-63
2022/08/15 08:47:35;;;;;;;1999.90;999.90;;;23.30;1.00;;;;;;5033607;28;20194;-64
2022/08/15 08:50:15;;;;;;;1999.90;999.90;;;23.40;1.00;;;;;;5031886;28;20184;-63
2022/08/15 08:52:52;;;;;;;1999.90;999.90;;;23.30;1.00;;;;;;5033473;28;20257;-64
2022/08/15 08:55:28;;;;;;;1999.90;999.90;;;23.40;1.00;;;;;;5033720;28;20212;-64
2022/08/15 08:57:59;;;;;;;1999.90;999.90;;;23.40;1.00;;;;;;5033808;28;20191;-63
2022/08/15 09:00:37;;;;;;;1999.90;999.90;;;23.40;1.00;;;;;;5033511;28;20242;-63
2022/08/15 09:03:15;;;;;;;1999.90;999.90;;;23.30;1.00;;;;;;5032858;28;20180;-62
2022/08/15 09:05:51;;;;;;;1999.90;999.90;;;23.00;1.00;;;;;;5033450;28;20184;-62
2022/08/15 09:08:24;;;;;;;1999.90;999.90;;;23.10;1.00;;;;;;5033519;28;20172;-62
2022/08/15 09:10:57;;;;;;;1999.90;999.90;;;23.00;1.00;;;;;;5033457;28;20180;-62
2022/08/15 09:13:36;;;;;;;1999.90;999.90;;;23.10;1.00;;;;;;5033425;28;20191;-62
2022/08/15 09:16:12;;;;;;;1999.90;999.90;;;23.20;1.00;;;;;;5032981;28;20200;-61
2022/08/15 09:18:46;;;;;;;1999.90;999.90;;;23.20;1.00;;;;;;5032973;28;20184;-62
2022/08/15 09:21:13;;;;;;;1999.90;999.90;;;23.20;1.00;;;;;;5033194;28;20180;-62
2022/08/15 09:23:43;;;;;;;1999.90;999.90;;;23.00;1.00;;;;;;5033236;28;20196;-62
2022/08/15 09:26:19;;;;;;;1999.90;999.90;;;22.90;4.90;;;;;;5033198;28;20191;-63
2022/08/15 09:29:02;;;;;;;1999.90;999.90;;;22.90;70.20;;;;;;5032772;28;20192;-62
2022/08/15 09:31:35;;;;;;;1999.90;999.90;;;22.80;99.90;;;;;;5032632;28;20645;-62
2022/08/15 09:34:28;;;;;;;1999.90;999.90;;;22.90;99.90;;;;;;5032682;28;20232;-61
2022/08/15 09:37:14;;;;;;;1999.90;999.90;;;22.90;99.90;;;;;;5032915;28;20196;-62
2022/08/15 09:40:15;;;;;;;1999.90;999.90;;;23.10;99.90;;;;;;5032931;28;20630;-61
2022/08/15 09:43:01;;;;;;;1999.90;999.90;;;23.20;41.30;;;;;;5030822;28;20263;-61
2022/08/15 09:45:49;;;;;;;1999.90;999.90;;;23.10;99.90;;;;;;5032784;28;20182;-62
2022/08/15 09:48:51;;;;;;;1999.90;999.90;;;23.10;99.90;;;;;;5032576;28;20188;-62
2022/08/15 09:51:37;;;;;;;1999.90;999.90;;;23.00;99.90;;;;;;5030573;28;20208;-62
2022/08/15 09:54:13;;;;;;;1999.90;999.90;;;23.00;99.90;;;;;;5032687;28;20187;-62
2022/08/15 09:56:40;;;;;;;1999.90;999.90;;;23.00;99.90;;;;;;5032215;28;20208;-61
2022/08/15 09:59:16;;;;;;;1999.90;999.90;;;23.10;99.90;;;;;;5032145;28;20203;-61
2022/08/15 10:01:47;;;;;;;1999.90;999.90;;;23.10;99.90;;;;;;5032153;28;20188;-61
2022/08/15 10:04:17;;;;;;;1999.90;999.90;;;23.10;35.30;;;;;;5032493;28;20184;-61
2022/08/15 10:07:17;;;;;;;1999.90;999.90;;;23.20;98.50;;;;;;5032409;28;20234;-61
2022/08/15 10:10:04;;;;;;;1999.90;999.90;;;23.40;1.00;;;;;;5032017;28;20555;-61
2022/08/15 10:12:37;;;;;;;1999.90;999.90;;;23.60;1.00;;;;;;5032162;28;20188;-61
2022/08/15 10:15:30;;;;;;;1999.90;999.90;;;23.70;1.00;;;;;;5031953;28;20204;-61
2022/08/15 10:17:59;;;;;;;1999.90;999.90;;;24.00;99.90;;;;;;5032060;28;20245;-61
2022/08/15 10:20:58;;;;;;;1999.90;999.90;;;24.20;99.90;;;;;;5032037;28;20556;-61
2022/08/15 10:23:31;;;;;;;1999.90;999.90;;;24.30;99.90;;;;;;5032043;28;20199;-60
2022/08/15 10:26:20;;;;;;;1999.90;999.90;;;24.50;57.50;;;;;;5032393;28;20187;-61
2022/08/15 10:29:08;;;;;;;1999.90;999.90;;;24.50;99.90;;;;;;5032177;28;20211;-61
2022/08/15 10:31:44;;;;;;;1999.90;999.90;;;24.40;1.00;;;;;;5032259;28;20230;-61
2022/08/15 10:34:27;;;;;;;1999.90;999.90;;;24.40;1.00;;;;;;5031957;28;20238;-61
2022/08/15 10:37:09;;;;;;;1999.90;999.90;;;24.70;58.90;;;;;;5031944;28;20661;-61
2022/08/15 10:39:51;;;;;;;1999.90;999.90;;;24.90;1.00;;;;;;5032252;28;20191;-61
2022/08/15 10:42:29;;;;;;;1999.90;999.90;;;24.70;1.00;;;;;;5032228;28;20177;-62
2022/08/15 10:45:11;;;;;;;1999.90;999.90;;;24.60;1.00;;;;;;5032201;28;20185;-61
2022/08/15 10:47:49;;;;;;;1999.90;999.90;;;24.50;1.00;;;;;;5032252;28;20185;-60
2022/08/15 10:50:23;;;;;;;1999.90;999.90;;;24.70;1.00;;;;;;5032247;28;20234;-60
2022/08/15 10:53:05;;;;;;;1999.90;999.90;;;24.70;99.90;;;;;;5032166;28;20177;-61
2022/08/15 10:55:34;;;;;;;1999.90;999.90;;;24.50;1.00;;;;;;5032077;28;20205;-60
2022/08/15 10:58:10;;;;;;;1999.90;999.90;;;24.70;99.90;;;;;;5031765;28;20695;-58
2022/08/15 11:00:51;;;;;;;1999.90;999.90;;;24.80;99.90;;;;;;5031961;28;20192;-59
2022/08/15 11:03:24;;;;;;;1999.90;999.90;;;24.60;99.90;;;;;;5031845;28;20189;-60
2022/08/15 11:05:57;;;;;;;1999.90;999.90;;;24.30;1.00;;;;;;5032049;28;20184;-59
2022/08/15 11:08:24;;;;;;;1999.90;999.90;;;24.50;1.00;;;;;;5031711;28;20210;-60
2022/08/15 11:10:52;;;;;;;1999.90;999.90;;;24.70;1.00;;;;;;5031593;28;20208;-60
2022/08/15 11:13:24;;;;;;;1999.90;999.90;;;24.80;99.90;;;;;;5031643;28;20242;-60
2022/08/15 11:15:55;;;;;;;1999.90;999.90;;;24.90;1.00;;;;;;5031864;28;20211;-60
2022/08/15 11:18:29;;;;;;;1999.90;999.90;;;25.10;43.30;;;;;;5031895;28;20187;-60
2022/08/15 11:21:02;;;;;;;1999.90;999.90;;;25.20;99.90;;;;;;5031561;28;20646;-60
2022/08/15 11:23:35;;;;;;;1999.90;999.90;;;25.40;99.90;;;;;;5031900;28;20192;-60
2022/08/15 11:26:04;;;;;;;1999.90;999.90;;;25.40;1.00;;;;;;5034773;28;20180;-62
2022/08/15 11:28:32;;;;;;;1999.90;999.90;;;25.40;1.00;;;;;;5035383;28;20208;-62
2022/08/15 11:31:02;;;;;;;1999.90;999.90;;;25.40;1.00;;;;;;5035038;28;20203;-62
2022/08/15 11:33:41;;;;;;;1999.90;999.90;;;25.40;1.00;;;;;;5034945;28;20235;-61
2022/08/15 11:36:12;;;;;;;1999.90;999.90;;;25.30;99.90;;;;;;5034125;28;20219;-62
2022/08/15 11:38:45;;;;;;;1999.90;999.90;;;25.10;99.90;;;;;;5035228;28;20204;-63
2022/08/15 11:41:20;;;;;;;1999.90;999.90;;;25.20;1.00;;;;;;5035082;28;20184;-60
2022/08/15 11:43:48;;;;;;;1999.90;999.90;;;25.20;1.00;;;;;;5034626;28;20206;-60
2022/08/15 11:46:18;;;;;;;1999.90;999.90;;;25.00;1.00;;;;;;5034909;28;20199;-60
2022/08/15 11:48:52;;;;;;;1999.90;999.90;;;25.20;1.00;;;;;;5034199;28;20196;-60
2022/08/15 11:51:25;;;;;;;1999.90;999.90;;;25.20;1.00;;;;;;5034916;28;20187;-60
2022/08/15 11:54:20;;;;;;;1999.90;999.90;;;25.20;1.00;;;;;;5034739;28;20203;-60
2022/08/15 11:56:50;;;;;;;1999.90;999.90;;;25.00;56.00;;;;;;5034587;28;20207;-59
2022/08/15 11:59:22;;;;;;;1999.90;999.90;;;25.00;99.90;;;;;;5034133;28;20534;-60
2022/08/15 12:02:35;;;;;;;1999.90;999.90;;;25.10;1.00;;;;;;5033730;28;20196;-60
2022/08/15 12:05:14;;;;;;;1999.90;999.90;;;25.00;99.90;;;;;;4992516;28;20180;-60
2022/08/15 12:07:45;;;;;;;1999.90;999.90;;;25.10;99.90;;;;;;4992384;28;20198;-60
2022/08/15 12:10:25;;;;;;;1999.90;999.90;;;25.20;1.00;;;;;;4992750;28;20228;-61
2022/08/15 12:12:53;;;;;;;1999.90;999.90;;;25.30;99.90;;;;;;4992721;28;20205;-60
2022/08/15 12:15:23;;;;;;;1999.90;999.90;;;25.30;1.00;;;;;;4992726;28;20661;-60
2022/08/15 12:18:07;;;;;;;1999.90;999.90;;;25.20;1.00;;;;;;4992593;28;20205;-60
2022/08/15 12:20:41;;;;;;;1999.90;999.90;;;25.10;99.90;;;;;;4992523;28;20198;-60
2022/08/15 12:23:28;;;;;;;1999.90;999.90;;;25.10;1.00;;;;;;4992576;28;20241;-60
2022/08/15 12:25:58;;;;;;;1999.90;999.90;;;25.30;1.00;;;;;;4992562;28;20205;-60
2022/08/15 12:28:26;;;;;;;1999.90;999.90;;;25.50;83.10;;;;;;4992378;28;20255;-60
2022/08/15 12:30:56;;;;;;;1999.90;999.90;;;25.70;99.90;;;;;;4992160;28;20198;-60